sensor_id;sensor_type;location;lat;lon;timestamp;P1;durP1;ratioP1;P2;durP2;ratioP2
20185;SDS011;10252;48.792;8.582;2023-09-19T00:02:34;3.05;;;1.60;;
20185;SDS011;10252;48.792;8.582;2023-09-19T00:07:37;5.80;;;1.70;;
20185;SDS011;10252;48.792;8.582;2023-09-19T00:12:42;3.38;;;1.40;;
20185;SDS011;10252;48.792;8.582;2023-09-19T00:17:44;4.05;;;1.30;;
20185;SDS011;10252;48.792;8.582;2023-09-19T00:22:46;3.20;;;1.55;;
20185;SDS011;10252;48.792;8.582;2023-09-19T00:27:47;2.00;;;1.33;;
20185;SDS011;10252;48.792;8.582;2023-09-19T00:32:51;3.38;;;1.60;;
20185;SDS011;10252;48.792;8.582;2023-09-19T00:37:53;5.45;;;1.52;;
20185;SDS011;10252;48.792;8.582;2023-09-19T00:42:59;2.53;;;1.45;;
20185;SDS011;10252;48.792;8.582;2023-09-19T00:48:00;3.08;;;1.42;;
20185;SDS011;10252;48.792;8.582;2023-09-19T00:53:04;2.25;;;1.42;;
20185;SDS011;10252;48.792;8.582;2023-09-19T00:58:08;5.68;;;1.80;;
20185;SDS011;10252;48.792;8.582;2023-09-19T01:03:11;3.58;;;1.70;;
20185;SDS011;10252;48.792;8.582;2023-09-19T01:08:14;2.22;;;1.02;;
20185;SDS011;10252;48.792;8.582;2023-09-19T01:13:48;2.53;;;1.50;;
20185;SDS011;10252;48.792;8.582;2023-09-19T01:23:53;3.17;;;1.52;;
20185;SDS011;10252;48.792;8.582;2023-09-19T01:29:13;2.28;;;1.90;;
20185;SDS011;10252;48.792;8.582;2023-09-19T01:34:21;4.40;;;1.75;;
20185;SDS011;10252;48.792;8.582;2023-09-19T01:39:22;4.10;;;1.90;;
20185;SDS011;10252;48.792;8.582;2023-09-19T01:44:36;4.72;;;2.10;;
20185;SDS011;10252;48.792;8.582;2023-09-19T01:55:07;4.28;;;1.85;;
20185;SDS011;10252;48.792;8.582;2023-09-19T02:00:10;2.75;;;1.85;;
20185;SDS011;10252;48.792;8.582;2023-09-19T02:05:22;2.90;;;2.17;;
20185;SDS011;10252;48.792;8.582;2023-09-19T02:10:28;2.38;;;2.17;;
20185;SDS011;10252;48.792;8.582;2023-09-19T02:15:30;2.70;;;1.70;;
20185;SDS011;10252;48.792;8.582;2023-09-19T02:20:34;3.80;;;2.13;;
20185;SDS011;10252;48.792;8.582;2023-09-19T02:25:36;5.78;;;1.63;;
20185;SDS011;10252;48.792;8.582;2023-09-19T02:30:41;2.50;;;1.60;;
20185;SDS011;10252;48.792;8.582;2023-09-19T02:35:43;4.05;;;1.90;;
20185;SDS011;10252;48.792;8.582;2023-09-19T02:40:45;4.15;;;2.00;;
20185;SDS011;10252;48.792;8.582;2023-09-19T02:45:47;7.78;;;2.00;;
20185;SDS011;10252;48.792;8.582;2023-09-19T02:50:50;5.20;;;2.20;;
20185;SDS011;10252;48.792;8.582;2023-09-19T02:55:52;3.72;;;1.70;;
20185;SDS011;10252;48.792;8.582;2023-09-19T03:00:55;2.78;;;1.67;;
20185;SDS011;10252;48.792;8.582;2023-09-19T03:05:58;4.53;;;2.22;;
20185;SDS011;10252;48.792;8.582;2023-09-19T03:11:03;4.35;;;1.80;;
20185;SDS011;10252;48.792;8.582;2023-09-19T03:16:12;3.20;;;2.60;;
20185;SDS011;10252;48.792;8.582;2023-09-19T03:21:16;3.75;;;1.85;;
20185;SDS011;10252;48.792;8.582;2023-09-19T03:26:20;4.90;;;2.10;;
20185;SDS011;10252;48.792;8.582;2023-09-19T03:31:22;5.43;;;2.33;;
20185;SDS011;10252;48.792;8.582;2023-09-19T03:36:23;9.55;;;2.45;;
20185;SDS011;10252;48.792;8.582;2023-09-19T03:41:26;5.75;;;2.92;;
20185;SDS011;10252;48.792;8.582;2023-09-19T03:46:27;7.05;;;2.20;;
20185;SDS011;10252;48.792;8.582;2023-09-19T03:51:30;5.05;;;2.17;;
20185;SDS011;10252;48.792;8.582;2023-09-19T03:56:34;3.35;;;2.40;;
20185;SDS011;10252;48.792;8.582;2023-09-19T04:01:39;4.00;;;2.13;;
20185;SDS011;10252;48.792;8.582;2023-09-19T04:06:42;4.13;;;2.20;;
20185;SDS011;10252;48.792;8.582;2023-09-19T04:11:43;3.40;;;1.70;;
20185;SDS011;10252;48.792;8.582;2023-09-19T04:16:45;3.90;;;2.00;;
20185;SDS011;10252;48.792;8.582;2023-09-19T04:21:47;2.10;;;1.70;;
20185;SDS011;10252;48.792;8.582;2023-09-19T04:26:49;3.72;;;2.47;;
20185;SDS011;10252;48.792;8.582;2023-09-19T04:31:50;3.15;;;2.05;;
20185;SDS011;10252;48.792;8.582;2023-09-19T04:36:52;2.97;;;2.00;;
20185;SDS011;10252;48.792;8.582;2023-09-19T04:41:54;1.95;;;1.25;;
20185;SDS011;10252;48.792;8.582;2023-09-19T04:46:55;3.72;;;2.40;;
20185;SDS011;10252;48.792;8.582;2023-09-19T04:51:57;1.38;;;1.08;;
20185;SDS011;10252;48.792;8.582;2023-09-19T04:56:58;3.63;;;1.40;;
20185;SDS011;10252;48.792;8.582;2023-09-19T05:02:03;1.35;;;0.90;;
20185;SDS011;10252;48.792;8.582;2023-09-19T05:07:05;2.30;;;1.13;;
20185;SDS011;10252;48.792;8.582;2023-09-19T05:12:06;3.00;;;1.33;;
20185;SDS011;10252;48.792;8.582;2023-09-19T05:17:11;3.72;;;1.33;;
20185;SDS011;10252;48.792;8.582;2023-09-19T05:22:12;2.35;;;1.60;;
20185;SDS011;10252;48.792;8.582;2023-09-19T05:27:14;2.38;;;1.75;;
20185;SDS011;10252;48.792;8.582;2023-09-19T05:32:17;4.72;;;1.83;;
20185;SDS011;10252;48.792;8.582;2023-09-19T05:37:20;5.07;;;1.98;;
20185;SDS011;10252;48.792;8.582;2023-09-19T05:42:22;4.50;;;1.85;;
20185;SDS011;10252;48.792;8.582;2023-09-19T05:47:24;2.83;;;1.92;;
20185;SDS011;10252;48.792;8.582;2023-09-19T05:52:25;3.22;;;2.20;;
20185;SDS011;10252;48.792;8.582;2023-09-19T05:57:27;5.22;;;2.03;;
20185;SDS011;10252;48.792;8.582;2023-09-19T06:02:29;3.05;;;2.17;;
20185;SDS011;10252;48.792;8.582;2023-09-19T06:07:30;8.27;;;2.90;;
20185;SDS011;10252;48.792;8.582;2023-09-19T06:12:40;7.90;;;2.78;;
20185;SDS011;10252;48.792;8.582;2023-09-19T06:17:48;7.00;;;2.10;;
20185;SDS011;10252;48.792;8.582;2023-09-19T06:22:49;6.10;;;2.30;;
20185;SDS011;10252;48.792;8.582;2023-09-19T06:27:52;5.85;;;2.20;;
20185;SDS011;10252;48.792;8.582;2023-09-19T06:32:58;6.00;;;2.20;;
20185;SDS011;10252;48.792;8.582;2023-09-19T06:38:04;3.72;;;2.13;;
20185;SDS011;10252;48.792;8.582;2023-09-19T06:43:06;5.18;;;2.30;;
20185;SDS011;10252;48.792;8.582;2023-09-19T06:48:08;3.38;;;2.00;;
20185;SDS011;10252;48.792;8.582;2023-09-19T06:53:11;3.92;;;1.73;;
20185;SDS011;10252;48.792;8.582;2023-09-19T06:58:12;3.28;;;2.20;;
20185;SDS011;10252;48.792;8.582;2023-09-19T07:03:14;2.42;;;1.80;;
20185;SDS011;10252;48.792;8.582;2023-09-19T07:08:16;5.40;;;2.40;;
20185;SDS011;10252;48.792;8.582;2023-09-19T07:13:19;2.78;;;2.22;;
20185;SDS011;10252;48.792;8.582;2023-09-19T07:18:21;5.35;;;2.45;;
20185;SDS011;10252;48.792;8.582;2023-09-19T07:23:22;4.40;;;1.60;;
20185;SDS011;10252;48.792;8.582;2023-09-19T07:28:26;3.45;;;2.15;;
20185;SDS011;10252;48.792;8.582;2023-09-19T07:33:28;6.47;;;2.38;;
20185;SDS011;10252;48.792;8.582;2023-09-19T07:38:30;3.35;;;1.90;;
20185;SDS011;10252;48.792;8.582;2023-09-19T07:43:33;2.63;;;1.40;;
20185;SDS011;10252;48.792;8.582;2023-09-19T07:48:35;2.67;;;1.05;;
20185;SDS011;10252;48.792;8.582;2023-09-19T07:53:38;3.75;;;1.45;;
20185;SDS011;10252;48.792;8.582;2023-09-19T07:58:39;4.28;;;1.65;;
20185;SDS011;10252;48.792;8.582;2023-09-19T08:03:43;1.25;;;1.15;;
20185;SDS011;10252;48.792;8.582;2023-09-19T08:08:45;2.13;;;1.17;;
20185;SDS011;10252;48.792;8.582;2023-09-19T08:13:47;1.00;;;0.90;;
20185;SDS011;10252;48.792;8.582;2023-09-19T08:18:49;1.38;;;1.20;;
20185;SDS011;10252;48.792;8.582;2023-09-19T08:23:53;1.40;;;1.10;;
20185;SDS011;10252;48.792;8.582;2023-09-19T08:28:55;2.58;;;1.13;;
20185;SDS011;10252;48.792;8.582;2023-09-19T08:33:56;3.00;;;1.40;;
20185;SDS011;10252;48.792;8.582;2023-09-19T08:38:58;1.75;;;1.10;;
20185;SDS011;10252;48.792;8.582;2023-09-19T08:43:59;3.70;;;1.35;;
20185;SDS011;10252;48.792;8.582;2023-09-19T08:49:08;2.67;;;1.40;;
20185;SDS011;10252;48.792;8.582;2023-09-19T08:54:15;1.85;;;1.08;;
20185;SDS011;10252;48.792;8.582;2023-09-19T08:59:22;7.70;;;1.30;;
20185;SDS011;10252;48.792;8.582;2023-09-19T09:04:24;2.15;;;1.17;;
20185;SDS011;10252;48.792;8.582;2023-09-19T09:09:26;1.55;;;1.00;;
20185;SDS011;10252;48.792;8.582;2023-09-19T09:14:29;1.40;;;1.20;;
20185;SDS011;10252;48.792;8.582;2023-09-19T09:19:31;2.90;;;1.42;;
20185;SDS011;10252;48.792;8.582;2023-09-19T09:24:33;3.97;;;1.40;;
20185;SDS011;10252;48.792;8.582;2023-09-19T09:34:41;2.13;;;1.10;;
20185;SDS011;10252;48.792;8.582;2023-09-19T09:39:48;1.70;;;1.30;;
20185;SDS011;10252;48.792;8.582;2023-09-19T09:45:13;1.88;;;1.23;;
20185;SDS011;10252;48.792;8.582;2023-09-19T09:50:23;2.13;;;1.10;;
20185;SDS011;10252;48.792;8.582;2023-09-19T09:55:29;2.28;;;0.95;;
20185;SDS011;10252;48.792;8.582;2023-09-19T10:00:32;1.25;;;1.02;;
20185;SDS011;10252;48.792;8.582;2023-09-19T10:05:44;2.10;;;1.02;;
20185;SDS011;10252;48.792;8.582;2023-09-19T10:10:45;2.00;;;1.02;;
20185;SDS011;10252;48.792;8.582;2023-09-19T10:16:06;3.78;;;1.20;;
20185;SDS011;10252;48.792;8.582;2023-09-19T10:21:11;1.92;;;1.13;;
20185;SDS011;10252;48.792;8.582;2023-09-19T10:26:15;2.78;;;1.15;;
20185;SDS011;10252;48.792;8.582;2023-09-19T10:31:19;3.40;;;1.25;;
20185;SDS011;10252;48.792;8.582;2023-09-19T10:36:24;2.92;;;1.10;;
20185;SDS011;10252;48.792;8.582;2023-09-19T10:41:26;1.42;;;1.00;;
20185;SDS011;10252;48.792;8.582;2023-09-19T10:46:31;3.00;;;1.20;;
20185;SDS011;10252;48.792;8.582;2023-09-19T10:51:40;2.70;;;1.17;;
20185;SDS011;10252;48.792;8.582;2023-09-19T10:56:43;2.28;;;0.90;;
20185;SDS011;10252;48.792;8.582;2023-09-19T11:01:54;1.77;;;1.00;;
20185;SDS011;10252;48.792;8.582;2023-09-19T11:07:08;2.05;;;1.10;;
20185;SDS011;10252;48.792;8.582;2023-09-19T11:17:43;2.55;;;1.30;;
20185;SDS011;10252;48.792;8.582;2023-09-19T11:33:20;3.25;;;0.95;;
20185;SDS011;10252;48.792;8.582;2023-09-19T11:43:45;1.58;;;0.90;;
20185;SDS011;10252;48.792;8.582;2023-09-19T11:48:50;4.15;;;1.20;;
20185;SDS011;10252;48.792;8.582;2023-09-19T11:53:58;2.00;;;1.00;;
20185;SDS011;10252;48.792;8.582;2023-09-19T11:59:00;1.88;;;1.10;;
20185;SDS011;10252;48.792;8.582;2023-09-19T12:04:02;3.92;;;1.20;;
20185;SDS011;10252;48.792;8.582;2023-09-19T12:09:11;3.47;;;1.10;;
20185;SDS011;10252;48.792;8.582;2023-09-19T12:14:23;2.60;;;1.00;;
20185;SDS011;10252;48.792;8.582;2023-09-19T12:19:26;2.50;;;1.10;;
20185;SDS011;10252;48.792;8.582;2023-09-19T12:24:29;3.15;;;0.98;;
20185;SDS011;10252;48.792;8.582;2023-09-19T12:29:30;2.13;;;1.15;;
20185;SDS011;10252;48.792;8.582;2023-09-19T12:34:32;1.17;;;1.00;;
20185;SDS011;10252;48.792;8.582;2023-09-19T12:39:43;2.25;;;1.20;;
20185;SDS011;10252;48.792;8.582;2023-09-19T12:44:50;2.08;;;0.95;;
20185;SDS011;10252;48.792;8.582;2023-09-19T12:50:05;1.80;;;1.30;;
20185;SDS011;10252;48.792;8.582;2023-09-19T12:55:07;2.20;;;1.10;;
20185;SDS011;10252;48.792;8.582;2023-09-19T13:00:11;2.95;;;1.20;;
20185;SDS011;10252;48.792;8.582;2023-09-19T13:05:12;1.38;;;0.93;;
20185;SDS011;10252;48.792;8.582;2023-09-19T13:10:14;1.25;;;0.88;;
20185;SDS011;10252;48.792;8.582;2023-09-19T13:15:17;2.08;;;1.13;;
20185;SDS011;10252;48.792;8.582;2023-09-19T13:20:24;3.35;;;1.40;;
20185;SDS011;10252;48.792;8.582;2023-09-19T13:25:27;3.78;;;1.13;;
20185;SDS011;10252;48.792;8.582;2023-09-19T13:30:30;5.15;;;1.10;;
20185;SDS011;10252;48.792;8.582;2023-09-19T13:35:32;2.78;;;1.67;;
20185;SDS011;10252;48.792;8.582;2023-09-19T13:40:33;1.23;;;1.00;;
20185;SDS011;10252;48.792;8.582;2023-09-19T13:45:35;2.08;;;1.00;;
20185;SDS011;10252;48.792;8.582;2023-09-19T13:50:37;1.15;;;0.98;;
20185;SDS011;10252;48.792;8.582;2023-09-19T13:55:42;1.75;;;0.95;;
20185;SDS011;10252;48.792;8.582;2023-09-19T14:00:44;1.02;;;0.80;;
20185;SDS011;10252;48.792;8.582;2023-09-19T14:05:45;0.80;;;0.70;;
20185;SDS011;10252;48.792;8.582;2023-09-19T14:10:48;2.88;;;0.93;;
20185;SDS011;10252;48.792;8.582;2023-09-19T14:15:50;1.02;;;0.93;;
20185;SDS011;10252;48.792;8.582;2023-09-19T14:20:51;1.63;;;0.82;;
20185;SDS011;10252;48.792;8.582;2023-09-19T14:25:53;1.02;;;0.93;;
20185;SDS011;10252;48.792;8.582;2023-09-19T14:30:55;1.48;;;0.80;;
20185;SDS011;10252;48.792;8.582;2023-09-19T14:35:57;1.15;;;0.90;;
20185;SDS011;10252;48.792;8.582;2023-09-19T14:40:59;1.25;;;0.90;;
20185;SDS011;10252;48.792;8.582;2023-09-19T14:46:04;2.75;;;1.00;;
20185;SDS011;10252;48.792;8.582;2023-09-19T14:51:13;1.02;;;0.93;;
20185;SDS011;10252;48.792;8.582;2023-09-19T14:56:15;2.45;;;0.95;;
20185;SDS011;10252;48.792;8.582;2023-09-19T15:01:19;1.38;;;0.70;;
20185;SDS011;10252;48.792;8.582;2023-09-19T15:06:20;1.20;;;1.10;;
20185;SDS011;10252;48.792;8.582;2023-09-19T15:11:22;1.30;;;0.77;;
20185;SDS011;10252;48.792;8.582;2023-09-19T15:16:24;2.75;;;1.05;;
20185;SDS011;10252;48.792;8.582;2023-09-19T15:21:25;1.35;;;0.70;;
20185;SDS011;10252;48.792;8.582;2023-09-19T15:26:27;1.35;;;0.73;;
20185;SDS011;10252;48.792;8.582;2023-09-19T15:31:29;1.20;;;0.70;;
20185;SDS011;10252;48.792;8.582;2023-09-19T15:36:30;1.98;;;1.10;;
20185;SDS011;10252;48.792;8.582;2023-09-19T15:41:32;2.38;;;0.90;;
20185;SDS011;10252;48.792;8.582;2023-09-19T15:46:34;1.13;;;0.73;;
20185;SDS011;10252;48.792;8.582;2023-09-19T15:51:37;1.50;;;0.82;;
20185;SDS011;10252;48.792;8.582;2023-09-19T15:56:41;2.40;;;1.00;;
20185;SDS011;10252;48.792;8.582;2023-09-19T16:01:43;1.40;;;0.70;;
20185;SDS011;10252;48.792;8.582;2023-09-19T16:06:45;1.00;;;0.90;;
20185;SDS011;10252;48.792;8.582;2023-09-19T16:11:46;1.95;;;1.77;;
20185;SDS011;10252;48.792;8.582;2023-09-19T16:16:49;1.20;;;0.80;;
20185;SDS011;10252;48.792;8.582;2023-09-19T16:21:50;1.70;;;1.17;;
20185;SDS011;10252;48.792;8.582;2023-09-19T16:26:52;0.95;;;0.70;;
20185;SDS011;10252;48.792;8.582;2023-09-19T16:31:53;3.35;;;1.33;;
20185;SDS011;10252;48.792;8.582;2023-09-19T16:36:55;3.17;;;1.48;;
20185;SDS011;10252;48.792;8.582;2023-09-19T16:41:56;1.92;;;0.90;;
20185;SDS011;10252;48.792;8.582;2023-09-19T16:46:58;2.55;;;1.00;;
20185;SDS011;10252;48.792;8.582;2023-09-19T16:51:59;1.00;;;0.80;;
20185;SDS011;10252;48.792;8.582;2023-09-19T16:57:01;1.33;;;0.77;;
20185;SDS011;10252;48.792;8.582;2023-09-19T17:02:02;1.98;;;1.15;;
20185;SDS011;10252;48.792;8.582;2023-09-19T17:07:08;0.80;;;0.80;;
20185;SDS011;10252;48.792;8.582;2023-09-19T17:12:10;2.05;;;1.13;;
20185;SDS011;10252;48.792;8.582;2023-09-19T17:17:14;2.00;;;0.73;;
20185;SDS011;10252;48.792;8.582;2023-09-19T17:22:15;2.78;;;1.58;;
20185;SDS011;10252;48.792;8.582;2023-09-19T17:27:18;3.67;;;1.10;;
20185;SDS011;10252;48.792;8.582;2023-09-19T17:32:19;2.17;;;1.10;;
20185;SDS011;10252;48.792;8.582;2023-09-19T17:37:21;2.38;;;1.42;;
20185;SDS011;10252;48.792;8.582;2023-09-19T17:42:23;1.67;;;1.30;;
20185;SDS011;10252;48.792;8.582;2023-09-19T17:47:24;1.63;;;1.23;;
20185;SDS011;10252;48.792;8.582;2023-09-19T17:52:26;1.80;;;1.30;;
20185;SDS011;10252;48.792;8.582;2023-09-19T17:57:28;1.30;;;1.10;;
20185;SDS011;10252;48.792;8.582;2023-09-19T18:02:29;2.78;;;1.38;;
20185;SDS011;10252;48.792;8.582;2023-09-19T18:07:31;4.97;;;1.98;;
20185;SDS011;10252;48.792;8.582;2023-09-19T18:12:36;2.72;;;1.70;;
20185;SDS011;10252;48.792;8.582;2023-09-19T18:17:38;2.25;;;1.35;;
20185;SDS011;10252;48.792;8.582;2023-09-19T18:22:40;2.47;;;1.65;;
20185;SDS011;10252;48.792;8.582;2023-09-19T18:27:42;2.75;;;1.40;;
20185;SDS011;10252;48.792;8.582;2023-09-19T18:32:44;2.78;;;1.30;;
20185;SDS011;10252;48.792;8.582;2023-09-19T18:37:45;6.22;;;1.50;;
20185;SDS011;10252;48.792;8.582;2023-09-19T18:42:48;5.13;;;1.60;;
20185;SDS011;10252;48.792;8.582;2023-09-19T18:47:50;1.70;;;1.55;;
20185;SDS011;10252;48.792;8.582;2023-09-19T18:52:52;1.63;;;1.35;;
20185;SDS011;10252;48.792;8.582;2023-09-19T18:57:53;4.38;;;2.72;;
20185;SDS011;10252;48.792;8.582;2023-09-19T19:02:55;2.30;;;1.52;;
20185;SDS011;10252;48.792;8.582;2023-09-19T19:08:00;2.03;;;1.38;;
20185;SDS011;10252;48.792;8.582;2023-09-19T19:13:02;2.05;;;1.85;;
20185;SDS011;10252;48.792;8.582;2023-09-19T19:18:04;2.92;;;1.80;;
20185;SDS011;10252;48.792;8.582;2023-09-19T19:23:07;2.22;;;1.67;;
20185;SDS011;10252;48.792;8.582;2023-09-19T19:28:10;2.78;;;2.03;;
20185;SDS011;10252;48.792;8.582;2023-09-19T19:33:14;2.85;;;1.52;;
20185;SDS011;10252;48.792;8.582;2023-09-19T19:38:17;2.90;;;2.08;;
20185;SDS011;10252;48.792;8.582;2023-09-19T19:43:20;2.40;;;1.80;;
20185;SDS011;10252;48.792;8.582;2023-09-19T19:48:24;4.57;;;2.10;;
20185;SDS011;10252;48.792;8.582;2023-09-19T19:53:26;2.22;;;1.67;;
20185;SDS011;10252;48.792;8.582;2023-09-19T19:58:29;3.67;;;1.67;;
20185;SDS011;10252;48.792;8.582;2023-09-19T20:03:32;2.80;;;1.63;;
20185;SDS011;10252;48.792;8.582;2023-09-19T20:08:35;3.38;;;1.52;;
20185;SDS011;10252;48.792;8.582;2023-09-19T20:13:37;2.78;;;1.70;;
20185;SDS011;10252;48.792;8.582;2023-09-19T20:18:40;3.22;;;1.38;;
20185;SDS011;10252;48.792;8.582;2023-09-19T20:23:42;1.85;;;1.35;;
20185;SDS011;10252;48.792;8.582;2023-09-19T20:28:46;3.05;;;1.67;;
20185;SDS011;10252;48.792;8.582;2023-09-19T20:33:48;5.03;;;1.48;;
20185;SDS011;10252;48.792;8.582;2023-09-19T20:38:49;2.42;;;1.77;;
20185;SDS011;10252;48.792;8.582;2023-09-19T20:43:52;3.33;;;1.63;;
20185;SDS011;10252;48.792;8.582;2023-09-19T20:48:54;2.80;;;1.55;;
20185;SDS011;10252;48.792;8.582;2023-09-19T20:53:57;4.22;;;1.65;;
20185;SDS011;10252;48.792;8.582;2023-09-19T20:58:59;2.92;;;1.80;;
20185;SDS011;10252;48.792;8.582;2023-09-19T21:04:03;2.22;;;1.30;;
20185;SDS011;10252;48.792;8.582;2023-09-19T21:09:04;1.60;;;1.30;;
20185;SDS011;10252;48.792;8.582;2023-09-19T21:14:08;1.30;;;1.15;;
20185;SDS011;10252;48.792;8.582;2023-09-19T21:19:09;1.67;;;1.58;;
20185;SDS011;10252;48.792;8.582;2023-09-19T21:24:11;1.70;;;1.45;;
20185;SDS011;10252;48.792;8.582;2023-09-19T21:29:17;2.40;;;1.90;;
20185;SDS011;10252;48.792;8.582;2023-09-19T21:34:18;3.35;;;1.60;;
20185;SDS011;10252;48.792;8.582;2023-09-19T21:39:20;3.03;;;1.50;;
20185;SDS011;10252;48.792;8.582;2023-09-19T21:44:22;2.42;;;1.83;;
20185;SDS011;10252;48.792;8.582;2023-09-19T21:49:24;3.60;;;1.60;;
20185;SDS011;10252;48.792;8.582;2023-09-19T21:54:25;4.50;;;1.50;;
20185;SDS011;10252;48.792;8.582;2023-09-19T21:59:27;3.38;;;1.60;;
20185;SDS011;10252;48.792;8.582;2023-09-19T22:04:29;2.75;;;1.50;;
20185;SDS011;10252;48.792;8.582;2023-09-19T22:09:31;2.83;;;1.58;;
20185;SDS011;10252;48.792;8.582;2023-09-19T22:14:33;2.75;;;1.60;;
20185;SDS011;10252;48.792;8.582;2023-09-19T22:19:36;3.50;;;1.35;;
20185;SDS011;10252;48.792;8.582;2023-09-19T22:24:44;6.82;;;2.08;;
20185;SDS011;10252;48.792;8.582;2023-09-19T22:29:45;3.38;;;1.60;;
20185;SDS011;10252;48.792;8.582;2023-09-19T22:34:47;3.58;;;2.00;;
20185;SDS011;10252;48.792;8.582;2023-09-19T22:39:50;2.25;;;1.80;;
20185;SDS011;10252;48.792;8.582;2023-09-19T22:44:51;4.45;;;1.90;;
20185;SDS011;10252;48.792;8.582;2023-09-19T22:49:55;4.88;;;2.03;;
20185;SDS011;10252;48.792;8.582;2023-09-19T22:54:58;2.50;;;2.13;;
20185;SDS011;10252;48.792;8.582;2023-09-19T22:59:59;4.32;;;1.60;;
20185;SDS011;10252;48.792;8.582;2023-09-19T23:05:01;2.88;;;1.85;;
20185;SDS011;10252;48.792;8.582;2023-09-19T23:10:05;2.53;;;1.52;;
20185;SDS011;10252;48.792;8.582;2023-09-19T23:15:10;2.75;;;1.60;;
20185;SDS011;10252;48.792;8.582;2023-09-19T23:20:16;2.17;;;1.52;;
20185;SDS011;10252;48.792;8.582;2023-09-19T23:25:25;2.17;;;1.58;;
20185;SDS011;10252;48.792;8.582;2023-09-19T23:30:28;2.63;;;1.80;;
20185;SDS011;10252;48.792;8.582;2023-09-19T23:35:30;5.32;;;1.73;;
20185;SDS011;10252;48.792;8.582;2023-09-19T23:40:33;2.67;;;1.95;;
20185;SDS011;10252;48.792;8.582;2023-09-19T23:45:39;3.17;;;1.70;;
20185;SDS011;10252;48.792;8.582;2023-09-19T23:50:42;3.08;;;1.58;;
20185;SDS011;10252;48.792;8.582;2023-09-19T23:55:45;3.25;;;1.73;;
